createdAt,value
2018-09-06T00:04:31.339Z,12.43
2018-09-06T00:09:35.497Z,13.25
2018-09-06T00:14:39.509Z,14.50
2018-09-06T00:19:43.637Z,14.65
2018-09-06T00:24:47.660Z,13.38
2018-09-06T00:29:52.257Z,12.00
2018-09-06T00:34:56.407Z,15.98
2018-09-06T00:40:00.537Z,15.65
2018-09-06T00:45:05.068Z,12.40
2018-09-06T00:50:16.160Z,17.50
2018-09-06T00:55:20.824Z,13.95
2018-09-06T01:00:24.955Z,14.73
2018-09-06T01:05:29.680Z,15.53
2018-09-06T01:10:33.819Z,18.27
2018-09-06T01:15:37.898Z,13.70
2018-09-06T01:20:42.019Z,15.32
2018-09-06T01:25:48.457Z,21.07
2018-09-06T01:30:52.556Z,22.48
2018-09-06T01:36:02.098Z,17.40
2018-09-06T01:41:06.360Z,17.25
2018-09-06T01:46:10.435Z,17.95
2018-09-06T01:51:14.613Z,14.70
2018-09-06T01:56:18.702Z,17.73
2018-09-06T02:01:22.833Z,19.90
2018-09-06T02:06:27.275Z,15.88
2018-09-06T02:11:31.453Z,17.42
2018-09-06T02:16:35.929Z,16.00
2018-09-06T02:21:40.127Z,17.10
2018-09-06T02:26:44.275Z,19.42
2018-09-06T02:31:48.497Z,19.52
2018-09-06T02:36:53.123Z,18.55
2018-09-06T02:41:57.674Z,16.52
2018-09-06T02:47:01.917Z,19.67
2018-09-06T02:52:06.697Z,18.35
2018-09-06T02:57:11.538Z,21.30
2018-09-06T03:02:15.594Z,17.75
2018-09-06T03:07:19.776Z,17.98
2018-09-06T03:12:24.032Z,18.73
2018-09-06T03:17:28.191Z,21.30
2018-09-06T03:22:32.212Z,21.33
2018-09-06T03:27:36.668Z,23.65
2018-09-06T03:32:40.793Z,20.95
2018-09-06T03:37:44.864Z,21.33
2018-09-06T03:42:48.983Z,22.58
2018-09-06T03:47:53.111Z,20.92
2018-09-06T03:52:57.241Z,22.50
2018-09-06T03:58:02.407Z,21.80
2018-09-06T04:03:06.807Z,21.55
2018-09-06T04:08:10.894Z,23.20
2018-09-06T04:13:15.051Z,23.30
2018-09-06T04:18:19.245Z,26.55
2018-09-06T04:23:23.428Z,23.30
2018-09-06T04:28:27.737Z,27.60
2018-09-06T04:33:31.937Z,22.15
2018-09-06T04:38:36.179Z,27.40
2018-09-06T04:43:40.402Z,24.72
2018-09-06T04:48:45.621Z,21.02
2018-09-06T04:53:49.747Z,21.70
2018-09-06T04:58:54.041Z,25.92
2018-09-06T05:03:58.211Z,26.23
2018-09-06T05:09:03.616Z,22.80
2018-09-06T05:14:07.700Z,28.02
2018-09-06T05:19:12.880Z,22.65
2018-09-06T05:24:17.110Z,25.15
2018-09-06T05:29:21.782Z,24.55
2018-09-06T05:34:25.933Z,24.05
2018-09-06T05:39:30.165Z,24.45
2018-09-06T05:44:34.419Z,22.58
2018-09-06T05:49:38.561Z,25.95
2018-09-06T05:54:42.938Z,21.97
2018-09-06T05:59:47.040Z,22.17
2018-09-06T06:04:51.149Z,21.97
2018-09-06T06:09:55.232Z,21.90
2018-09-06T06:14:59.428Z,18.37
2018-09-06T06:20:03.735Z,21.07
2018-09-06T06:25:07.859Z,20.43
2018-09-06T06:30:11.884Z,23.12
2018-09-06T06:35:15.975Z,22.52
2018-09-06T06:40:20.771Z,18.20
2018-09-06T06:45:24.878Z,16.60
2018-09-06T06:50:29.193Z,17.85
2018-09-06T06:55:34.129Z,16.93
2018-09-06T07:00:43.186Z,12.35
2018-09-06T07:05:47.335Z,15.23
2018-09-06T07:10:51.467Z,13.75
2018-09-06T07:15:55.635Z,15.03
2018-09-06T07:20:59.991Z,14.00
2018-09-06T07:26:04.117Z,14.25
2018-09-06T07:31:08.351Z,15.83
2018-09-06T07:36:12.376Z,13.20
2018-09-06T07:41:16.599Z,13.72
2018-09-06T07:46:20.715Z,13.08
2018-09-06T07:51:25.951Z,12.10
2018-09-06T07:56:30.195Z,16.30
2018-09-06T08:01:35.215Z,12.40
2018-09-06T08:06:39.518Z,13.95
2018-09-06T08:11:43.865Z,13.55
2018-09-06T08:16:47.941Z,13.90
2018-09-06T08:21:51.968Z,16.10
2018-09-06T08:26:56.148Z,15.45
2018-09-06T08:32:00.316Z,16.85
2018-09-06T08:37:05.005Z,14.55
2018-09-06T08:42:09.199Z,16.07
2018-09-06T08:47:13.408Z,15.65
2018-09-06T08:52:17.514Z,15.90
2018-09-06T08:57:22.712Z,14.28
2018-09-06T09:02:27.920Z,14.58
2018-09-06T09:07:32.022Z,15.10
2018-09-06T09:12:36.019Z,14.53
2018-09-06T09:17:40.167Z,13.95
2018-09-06T09:22:44.400Z,13.18
2018-09-06T09:27:49.249Z,14.87
2018-09-06T09:32:53.395Z,13.90
2018-09-06T09:37:57.614Z,17.05
2018-09-06T09:43:01.797Z,15.83
2018-09-06T09:48:06.107Z,15.18
2018-09-06T09:53:10.320Z,14.40
2018-09-06T09:58:14.443Z,12.65
2018-09-06T10:03:24.095Z,21.17
2018-09-06T10:08:34.560Z,13.22
2018-09-06T10:13:47.487Z,13.18
2018-09-06T10:18:51.603Z,14.38
2018-09-06T10:23:55.772Z,15.60
2018-09-06T10:28:59.876Z,14.15
2018-09-06T10:34:04.280Z,14.93
2018-09-06T10:39:09.985Z,10.90
2018-09-06T10:44:14.116Z,13.20
2018-09-06T10:49:18.285Z,18.27
2018-09-06T10:54:22.447Z,13.30
2018-09-06T10:59:26.794Z,13.83
2018-09-06T11:04:31.022Z,12.78
2018-09-06T11:09:35.174Z,11.75
2018-09-06T11:14:39.293Z,10.30
2018-09-06T11:19:43.660Z,10.50
2018-09-06T11:24:48.160Z,11.08
2018-09-06T11:29:52.177Z,8.95
2018-09-06T11:34:56.315Z,9.08
2018-09-06T11:40:01.381Z,9.28
2018-09-06T11:45:05.770Z,8.08
2018-09-06T11:50:09.915Z,8.58
2018-09-06T11:55:14.117Z,7.85
2018-09-06T12:00:18.447Z,10.30
2018-09-06T12:05:22.601Z,10.20
2018-09-06T12:10:26.750Z,9.50
2018-09-06T12:15:31.011Z,8.75
2018-09-06T12:20:35.105Z,8.05
2018-09-06T12:25:39.243Z,7.47
2018-09-06T12:30:43.428Z,7.35
2018-09-06T12:35:47.639Z,8.00
2018-09-06T12:40:51.819Z,9.23
2018-09-06T12:45:55.967Z,7.42
2018-09-06T12:51:00.191Z,8.33
2018-09-06T12:56:05.184Z,7.55
2018-09-06T13:01:11.971Z,7.20
2018-09-06T13:06:16.180Z,9.20
2018-09-06T13:11:20.315Z,10.32
2018-09-06T13:16:24.422Z,9.88
2018-09-06T13:21:28.592Z,9.88
2018-09-06T13:26:32.706Z,11.12
2018-09-06T13:31:36.975Z,11.65
2018-09-06T13:36:41.124Z,14.95
2018-09-06T13:41:45.231Z,20.00
2018-09-06T13:46:49.354Z,12.33
2018-09-06T13:51:53.577Z,10.78
2018-09-06T13:56:57.643Z,12.95
2018-09-06T14:02:01.798Z,16.52
2018-09-06T14:07:06.356Z,17.62
2018-09-06T14:12:11.232Z,8.70
2018-09-06T14:17:15.462Z,7.85
2018-09-06T14:22:19.970Z,9.13
2018-09-06T14:27:24.157Z,5.58
2018-09-06T14:32:29.163Z,7.08
2018-09-06T14:37:33.392Z,5.10
2018-09-06T14:42:38.442Z,4.58
2018-09-06T14:47:42.581Z,3.67
2018-09-06T14:52:46.882Z,4.70
2018-09-06T14:57:51.040Z,4.95
2018-09-06T15:02:55.185Z,4.62
2018-09-06T15:07:59.362Z,4.30
2018-09-06T15:13:04.932Z,3.75
2018-09-06T15:18:09.142Z,3.75
2018-09-06T15:23:13.280Z,5.12
2018-09-06T15:28:18.154Z,3.80
2018-09-06T15:33:22.276Z,4.70
2018-09-06T15:38:26.730Z,6.40
2018-09-06T15:43:30.825Z,4.50
2018-09-06T15:48:34.972Z,4.28
2018-09-06T15:53:39.229Z,4.97
2018-09-06T15:58:43.401Z,4.75
2018-09-06T16:03:48.141Z,6.95
2018-09-06T16:08:52.157Z,4.08
2018-09-06T16:13:56.971Z,6.90
2018-09-06T16:19:01.241Z,4.45
2018-09-06T16:24:06.054Z,4.70
2018-09-06T16:29:10.980Z,6.35
2018-09-06T16:34:15.761Z,5.53
2018-09-06T16:39:20.445Z,5.17
2018-09-06T16:44:24.584Z,5.12
2018-09-06T16:49:28.607Z,5.20
2018-09-06T16:54:32.821Z,3.75
2018-09-06T16:59:36.929Z,4.30
2018-09-06T17:04:41.210Z,6.03
2018-09-06T17:09:45.908Z,5.67
2018-09-06T17:14:50.098Z,4.55
2018-09-06T17:19:54.214Z,5.85
2018-09-06T17:24:58.888Z,5.42
2018-09-06T17:30:04.031Z,6.03
2018-09-06T17:35:08.133Z,11.50
2018-09-06T17:40:12.822Z,8.25
2018-09-06T17:45:17.017Z,9.40
2018-09-06T17:50:21.235Z,6.28
2018-09-06T17:55:25.357Z,4.53
2018-09-06T18:00:29.449Z,4.20
2018-09-06T18:05:33.618Z,6.65
2018-09-06T18:10:38.185Z,5.75
2018-09-06T18:15:42.369Z,7.60
2018-09-06T18:20:46.438Z,5.67
2018-09-06T18:25:50.590Z,6.42
2018-09-06T18:30:55.441Z,5.42
2018-09-06T18:35:59.971Z,7.10
2018-09-06T18:41:04.117Z,4.28
2018-09-06T18:46:08.431Z,4.35
2018-09-06T18:51:12.852Z,5.17
2018-09-06T18:56:16.983Z,3.98
2018-09-06T19:01:21.315Z,3.25
2018-09-06T19:06:25.451Z,4.67
2018-09-06T19:11:29.586Z,4.40
2018-09-06T19:16:33.743Z,4.78
2018-09-06T19:21:37.829Z,5.60
2018-09-06T19:26:41.913Z,5.28
2018-09-06T19:31:46.172Z,5.60
2018-09-06T19:38:14.733Z,4.60
2018-09-06T19:43:18.961Z,5.67
2018-09-06T19:48:23.714Z,6.65
2018-09-06T19:53:27.928Z,5.05
2018-09-06T19:58:32.001Z,5.62
2018-09-06T20:03:36.121Z,7.40
2018-09-06T20:08:40.160Z,9.90
2018-09-06T20:13:44.839Z,7.53
2018-09-06T20:18:48.968Z,9.05
2018-09-06T20:23:54.390Z,8.40
2018-09-06T20:28:58.597Z,7.55
2018-09-06T20:34:03.115Z,11.20
2018-09-06T20:39:08.467Z,11.43
2018-09-06T20:44:12.558Z,9.78
2018-09-06T20:49:16.849Z,11.00
2018-09-06T20:54:21.025Z,9.48
2018-09-06T20:59:25.949Z,10.28
2018-09-06T21:04:30.019Z,8.70
2018-09-06T21:09:34.148Z,8.45
2018-09-06T21:14:38.274Z,9.68
2018-09-06T21:19:42.365Z,7.08
2018-09-06T21:24:46.523Z,9.30
2018-09-06T21:29:50.685Z,11.90
2018-09-06T21:34:54.809Z,11.55
2018-09-06T21:39:58.911Z,10.48
2018-09-06T21:45:02.961Z,7.47
2018-09-06T21:50:07.323Z,8.05
2018-09-06T21:55:11.441Z,8.60
2018-09-06T22:00:15.565Z,11.65
2018-09-06T22:05:20.507Z,9.15
2018-09-06T22:10:25.348Z,9.00
2018-09-06T22:15:29.909Z,8.30
2018-09-06T22:20:33.977Z,7.60
2018-09-06T22:25:38.153Z,8.85
2018-09-06T22:30:42.956Z,6.67
2018-09-06T22:35:47.960Z,7.17
2018-09-06T22:40:52.842Z,8.08
2018-09-06T22:45:57.115Z,8.28
2018-09-06T22:51:01.982Z,9.00
2018-09-06T22:56:06.214Z,7.50
2018-09-06T23:01:10.391Z,7.78
2018-09-06T23:06:14.442Z,7.28
2018-09-06T23:11:18.587Z,7.05
2018-09-06T23:16:22.916Z,9.25
2018-09-06T23:21:26.990Z,6.83
2018-09-06T23:26:31.130Z,8.93
2018-09-06T23:31:35.279Z,8.30
2018-09-06T23:36:39.366Z,8.10
2018-09-06T23:41:43.400Z,8.88
2018-09-06T23:46:47.522Z,8.28
2018-09-06T23:51:51.637Z,8.20
2018-09-06T23:56:55.713Z,9.15
